Goodwick, United Kingdom
Current Conditions -  °F | °C
As of 3:50 PM on Thursday 29 Jan 2015 (Local Time) from EGOP Reporting Station
Scattered Clouds Scattered Clouds  
Wind Chill: 28°   Ceiling: Unl
Heat Index: 39°   Visibility: 6mi
Dew Point: 32°   Wind: 29mph
Humidity: 75%   Direction: 310°NW
Pressure: 29"   Gusts: 40mph
Location:  52°N, 5°W
Report Text: EGOP 291550Z 31025G35KT 9999 FEW025 SCT050 04/M00 Q0982 BLU
Loading
Personal Weather Stations






























Interactive Weather Map New forecast layout! Learn more

10-Day Weather Forecast

Advertisements
Track Severe Weather on mobile